Flight Track Log - Related Links

Times and Time Zones

All times are in EST time to prevent confusion due to time zone crossing. See the BOE1 flight status page for this flight to view local times or setup timezone preferences in your user account.

Time Position Orientation Groundspeed Altitude Reporting Facility
EST Latitude Longitude Course Direction KTS MPH feet Rate Location/Type
Sat 04:00:02 PM 47.5444 -122.3160 326° Northwest 160 184 1,300  Level Seattle Center
Sat 04:00:27 PM 47.5636 -122.3350 325° Northwest 186 214 1,900 1,742 Climbing Seattle Center
Sat 04:01:04 PM 47.5939 -122.3670 310° West 226 260 3,100 3,245 Climbing Seattle Center
Sat 04:02:05 PM 47.6375 -122.4430 323° Northwest 240 276 7,200 3,393 Climbing Seattle Center
Sat 04:03:06 PM 47.6936 -122.5050 28° Northeast 254 292 10,000 1,377 Climbing Seattle Center
Sat 04:04:07 PM 47.7633 -122.4500 35° Northeast 282 325 10,000  Level Seattle Center
Sat 04:05:08 PM 47.8297 -122.3820 35° Northeast 286 329 10,000 49 Level Seattle Center
Sat 04:06:09 PM 47.8967 -122.3120 39° Northeast 291 335 10,100  Climbing Seattle Center
Sat 04:07:10 PM 47.9600 -122.2360 23° Northeast 292 336 10,000 195 Descending Seattle Center
Sat 04:08:12 PM 48.0350 -122.1880 24° Northeast 309 356 10,500 244 Climbing Seattle Center
Sat 04:09:13 PM 48.1167 -122.1330 35° Northeast 337 388 10,500 148 Level Seattle Center
Sat 04:10:14 PM 48.1894 -122.0560 98° East 336 387 10,800 246 Climbing Seattle Center
Sat 04:11:15 PM 48.1772 -121.9190 108° East 332 382 11,000 98 Climbing Seattle Center
Sat 04:12:16 PM 48.1492 -121.7870 108° East 335 386 11,000 49 Level Seattle Center
Sat 04:13:17 PM 48.1139 -121.6270 107° East 336 387 11,100 195 Climbing Seattle Center
Sat 04:14:19 PM 48.0864 -121.4920 99° East 338 389 11,400 683 Climbing Seattle Center
Sat 04:15:20 PM 48.0714 -121.3570 94° East 339 390 12,500 787 Climbing Seattle Center
Sat 04:16:21 PM 48.0644 -121.2180 93° East 342 394 13,000 197 Climbing Seattle Center
Sat 04:17:22 PM 48.0594 -121.0760 94° East 345 397 12,900  Descending Seattle Center
Sat 04:18:23 PM 48.0528 -120.9340 95° East 347 399 13,000 49 Climbing Seattle Center
Sat 04:19:25 PM 48.0436 -120.7770 94° East 345 397 13,000 -732 Level Seattle Center
Sat 04:20:26 PM 48.0367 -120.6350 95° East 345 397 11,500 -1,426 Descending Seattle Center
Sat 04:21:27 PM 48.0286 -120.4940 94° East 343 395 10,100 -738 Descending Seattle Center
Sat 04:22:28 PM 48.0222 -120.3570 92° East 337 388 10,000 49 Descending Seattle Center
Sat 04:23:29 PM 48.0186 -120.2170 91° East 337 388 10,200 98 Climbing Seattle Center
Sat 04:24:30 PM 48.0172 -120.0770 91° East 337 388 10,200 98 Level Seattle Center
Sat 04:25:32 PM 48.0158 -119.9360 92° East 338 389 10,400  Climbing Seattle Center
Sat 04:26:33 PM 48.0125 -119.7670 95° East 341 392 10,200 -197 Descending Seattle Center
Sat 04:27:34 PM 48.0047 -119.6290 97° East 338 389 10,000 -49 Descending Seattle Center
Sat 04:28:35 PM 47.9939 -119.4910 95° East 336 387 10,100 49 Climbing Seattle Center
Sat 04:29:36 PM 47.9864 -119.3520 92° East 337 388 10,100  Level Seattle Center
Sat 04:30:37 PM 47.9828 -119.2130 93° East 335 386 10,100  Level Seattle Center
Sat 04:31:38 PM 47.9781 -119.0730 92° East 337 388 10,100  Level Seattle Center
Sat 04:32:39 PM 47.9747 -118.9330 91° East 338 389 10,100 -49 Level Seattle Center
Sat 04:33:40 PM 47.9728 -118.7900 102° East 344 396 10,000 -98 Descending Seattle Center
Sat 04:34:41 PM 47.9531 -118.6540 100° East 341 392 9,900 -49 Descending Seattle Center
Sat 04:35:42 PM 47.9350 -118.5050 100° East 364 419 9,900 98 Level Seattle Center
Sat 04:36:43 PM 47.9167 -118.3580 100° East 363 418 10,100 98 Climbing Seattle Center
Sat 04:37:44 PM 47.8986 -118.2100 155° Southeast 364 419 10,100  Level Seattle Center
Sat 04:38:45 PM 47.8192 -118.1540 276° West 352 405 10,100  Level Seattle Center
Sat 04:39:46 PM 47.8286 -118.2950 292° West 376 433 10,100 49 Level Seattle Center
Sat 04:40:48 PM 47.8672 -118.4400 289° West 378 435 10,200 49 Climbing Seattle Center
Sat 04:41:49 PM 47.9017 -118.5880 284° West 380 437 10,200 -98 Level Seattle Center
Sat 04:42:50 PM 47.9281 -118.7450 277° West 395 455 10,000 49 Descending Seattle Center
Sat 04:43:51 PM 47.9422 -118.9080 267° West 404 465 10,300 197 Climbing Seattle Center
Sat 04:44:52 PM 47.9367 -119.0750 271° West 399 459 10,400 98 Climbing Seattle Center
Sat 04:45:53 PM 47.9394 -119.2410 276° West 406 467 10,500 98 Climbing Seattle Center
Sat 04:46:54 PM 47.9506 -119.4040 278° West 402 463 10,600 -148 Climbing Seattle Center
Sat 04:47:55 PM 47.9664 -119.5680 280° West 403 464 10,200 -295 Descending Seattle Center
Sat 04:48:56 PM 47.9858 -119.7320 282° West 404 465 10,000 -197 Descending Seattle Center
Sat 04:49:57 PM 48.0128 -119.9220 283° West 400 460 9,800 -98 Descending Seattle Center
Sat 04:50:58 PM 48.0375 -120.0840 283° West 400 460 9,800 590 Level Seattle Center
Sat 04:51:59 PM 48.0622 -120.2440 197° South 399 459 11,000 590 Climbing Seattle Center
Sat 04:53:00 PM 47.9736 -120.2840 100° East 388 447 11,000 -49 Level Seattle Center
Sat 04:54:02 PM 47.9544 -120.1140 96° East 405 466 10,900 49 Descending Seattle Center
Sat 04:55:03 PM 47.9431 -119.9440 87° East 410 472 11,100 49 Climbing Seattle Center
Sat 04:56:04 PM 47.9500 -119.7690 83° East 419 482 11,000 -98 Descending Seattle Center
Sat 04:57:05 PM 47.9644 -119.5990 76° East 419 482 10,900 -45 Descending Seattle Center
Sat 04:58:18 PM 47.9983 -119.3960 82° East 421 484 10,900  Level Seattle Center
Sat 04:59:19 PM 48.0139 -119.2260 102° East 420 483 10,900 639 Level Seattle Center
Sat 05:00:20 PM 47.9911 -119.0660 103° East 395 455 12,200 1,770 Climbing Seattle Center
Sat 05:01:21 PM 47.9628 -118.8810 102° East 387 445 14,500 2,390 Climbing Seattle Center
Sat 05:02:23 PM 47.9389 -118.7110 99° East 413 475 17,100 2,537 Climbing Seattle Center
Sat 05:03:24 PM 47.9219 -118.5440 94° East 408 470 19,700 2,311 Climbing Seattle Center
Sat 05:04:25 PM 47.9133 -118.3780 94° East 407 468 21,800 1,131 Climbing Seattle Center
Sat 05:05:26 PM 47.9053 -118.2120 92° East 404 465 22,000 49 Climbing Seattle Center
Sat 05:06:27 PM 47.9006 -118.0450 92° East 405 466 21,900 -49 Descending Seattle Center
Sat 05:07:28 PM 47.8967 -117.8770 101° East 403 464 21,900 -49 Level Seattle Center
Sat 05:08:29 PM 47.8744 -117.7140 106° East 402 463 21,800 -49 Descending Seattle Center
Sat 05:09:31 PM 47.8442 -117.5540 112° Southeast 400 460 21,800  Level Seattle Center
Sat 05:10:32 PM 47.8036 -117.4010 116° Southeast 397 457 21,800 49 Level Seattle Center
Sat 05:11:33 PM 47.7489 -117.2350 79° East 393 452 21,900 98 Climbing Seattle Center
Sat 05:12:34 PM 47.7717 -117.0610 16° North 410 472 22,000 49 Climbing Seattle Center
Sat 05:13:35 PM 47.8522 -117.0260 292° West 401 461 22,000  Level Seattle Center
Sat 05:14:36 PM 47.8956 -117.1900 271° West 381 438 22,000 98 Level Seattle Center
Sat 05:15:37 PM 47.8975 -117.3490 272° West 385 443 22,200  Climbing Seattle Center
Sat 05:16:38 PM 47.9019 -117.5070 272° West 384 442 22,000 -148 Descending Seattle Center
Sat 05:17:39 PM 47.9050 -117.6650 273° West 384 442 21,900  Descending Seattle Center
Sat 05:18:40 PM 47.9100 -117.8230 273° West 384 442 22,000 49 Climbing Seattle Center
Sat 05:19:41 PM 47.9153 -117.9810 274° West 384 442 22,000  Level Seattle Center
Sat 05:20:42 PM 47.9233 -118.1620 278° West 452 520 22,000  Level Seattle Center
Sat 05:21:43 PM 47.9422 -118.3580 277° West 476 548 22,000 49 Level Seattle Center
Sat 05:22:44 PM 47.9572 -118.5530 274° West 474 545 22,100  Climbing Seattle Center
Sat 05:23:45 PM 47.9683 -118.7930 275° West 472 543 22,000 -98 Descending Seattle Center
Sat 05:24:46 PM 47.9786 -118.9890 275° West 478 550 21,900 -98 Descending Seattle Center
Sat 05:25:47 PM 47.9908 -119.1840 275° West 478 550 21,800  Descending Seattle Center
Sat 05:26:48 PM 48.0028 -119.3780 276° West 473 544 21,900 98 Climbing Seattle Center
Sat 05:27:49 PM 48.0156 -119.5730 276° West 475 547 22,000 49 Climbing Seattle Center
Sat 05:28:50 PM 48.0283 -119.7680 276° West 474 545 22,000 -49 Level Seattle Center
Sat 05:29:51 PM 48.0425 -119.9630 276° West 475 547 21,900  Descending Seattle Center
Sat 05:30:52 PM 48.0564 -120.1560 277° West 475 547 22,000 49 Climbing Seattle Center
Sat 05:31:53 PM 48.0717 -120.3530 276° West 477 549 22,000  Level Seattle Center
Sat 05:32:54 PM 48.0853 -120.5490 276° West 477 549 22,000 -49 Level Seattle Center
Sat 05:33:55 PM 48.0986 -120.7460 276° West 477 549 21,900 -98 Descending Seattle Center
Sat 05:34:56 PM 48.1136 -120.9490 276° West 476 548 21,800  Descending Seattle Center
Sat 05:35:57 PM 48.1283 -121.1450 277° West 477 549 21,900 98 Climbing Seattle Center
Sat 05:36:58 PM 48.1469 -121.3760 275° West 476 548 22,000 49 Climbing Seattle Center
Sat 05:37:59 PM 48.1592 -121.5720 283° West 479 551 22,000  Level Seattle Center
Sat 05:39:00 PM 48.1867 -121.7540 341° North 473 544 22,000  Level Seattle Center
Sat 05:40:01 PM 48.3019 -121.8120 57° Northeast 492 566 22,000  Level Seattle Center
Sat 05:41:02 PM 48.3697 -121.6520 123° Southeast 501 577 22,000  Level Seattle Center
Sat 05:42:03 PM 48.3014 -121.4930 122° Southeast 478 550 22,000 49 Level Seattle Center
Sat 05:43:04 PM 48.2283 -121.3200 117° Southeast 497 572 22,100  Climbing Seattle Center
Sat 05:44:05 PM 48.1667 -121.1420 116° Southeast 489 563 22,000 -148 Descending Seattle Center
Sat 05:45:06 PM 48.0947 -120.9250 116° Southeast 490 564 21,800 -98 Descending Seattle Center
Sat 05:46:07 PM 48.0447 -120.7710 110° East 488 562 21,800  Level Seattle Center
Sat 05:47:08 PM 47.9983 -120.5810 91° East 493 567 21,800 148 Level Seattle Center
Sat 05:48:09 PM 47.9956 -120.3370 92° East 494 568 22,100 98 Climbing Seattle Center
Sat 05:49:10 PM 47.9894 -120.1290 93° East 500 575 22,000 -49 Descending Seattle Center
Sat 05:50:11 PM 47.9808 -119.9150 94° East 514 592 22,000  Level Seattle Center
Sat 05:51:12 PM 47.9703 -119.6980 94° East 524 603 22,000  Level Seattle Center
Sat 05:52:12 PM 47.9611 -119.4800 96° East 526 605 22,000 -50 Level Seattle Center
Sat 05:53:13 PM 47.9469 -119.2650 96° East 522 601 21,900 -49 Descending Seattle Center
Sat 05:54:14 PM 47.9308 -119.0480 97° East 526 605 21,900  Level Seattle Center
Sat 05:55:15 PM 47.9128 -118.8290 98° East 531 611 21,900 49 Level Seattle Center
Sat 05:56:16 PM 47.8925 -118.6140 99° East 529 609 22,000 49 Climbing Seattle Center
Sat 05:57:17 PM 47.8706 -118.3980 100° East 528 608 22,000  Level Seattle Center
Sat 05:58:18 PM 47.8458 -118.1830 101° East 528 608 22,000 49 Level Seattle Center
Sat 05:59:19 PM 47.8181 -117.9680 102° East 530 610 22,100 49 Climbing Seattle Center
Sat 06:00:20 PM 47.7872 -117.7560 97° East 528 608 22,100 -98 Level Seattle Center
Sat 06:01:21 PM 47.7681 -117.5420 95° East 523 602 21,900 -98 Descending Seattle Center
Sat 06:02:22 PM 47.7528 -117.2790 93° East 523 602 21,900 98 Level Seattle Center
Sat 06:03:23 PM 47.7453 -117.0610 91° East 527 606 22,100 50 Climbing Seattle Center
Sat 06:04:23 PM 47.7414 -116.8450 90° East 526 605 22,000  Descending Seattle Center
Sat 06:05:24 PM 47.7406 -116.6610 91° East 527 606 22,100  Climbing Seattle Center
Sat 06:06:25 PM 47.7389 -116.4600 92° East 489 563 22,000 -49 Descending Seattle Center
Sat 06:07:26 PM 47.7317 -116.2170 90° East 486 559 22,000 197 Level Seattle Center
Sat 06:08:27 PM 47.7308 -116.0120 30° Northeast 493 567 22,400 1,672 Climbing Seattle Center
Sat 06:09:28 PM 47.8408 -115.9170 316° Northwest 497 572 25,400 3,148 Climbing Seattle Center
Sat 06:10:29 PM 47.9267 -116.0430 258° West 475 547 28,800 2,262 Climbing Seattle Center
Sat 06:11:30 PM 47.9011 -116.2210 255° West 447 514 30,000 590 Climbing Seattle Center
Sat 06:12:31 PM 47.8686 -116.3990 269° West 446 513 30,000  Level Seattle Center
Sat 06:13:32 PM 47.8669 -116.5830 271° West 451 519 30,000 -98 Level Seattle Center
Sat 06:14:33 PM 47.8694 -116.7660 271° West 446 513 29,800  Descending Seattle Center
Sat 06:15:34 PM 47.8706 -116.9480 273° West 446 513 30,000 148 Climbing Seattle Center
Sat 06:16:35 PM 47.8772 -117.1710 274° West 447 514 30,100  Climbing Seattle Center
Sat 06:17:36 PM 47.8864 -117.3540 276° West 447 514 30,000 -98 Descending Seattle Center
Sat 06:18:37 PM 47.8983 -117.5370 276° West 448 516 29,900 -49 Descending Seattle Center
Sat 06:19:38 PM 47.9119 -117.7200 276° West 448 516 29,900 49 Level Seattle Center
Sat 06:20:39 PM 47.9242 -117.9030 275° West 448 516 30,000  Climbing Seattle Center
Sat 06:21:40 PM 47.9350 -118.0870 276° West 447 514 29,900 -49 Descending Seattle Center
Sat 06:22:41 PM 47.9469 -118.2730 275° West 452 520 29,900 49 Level Seattle Center
Sat 06:23:42 PM 47.9575 -118.4580 275° West 449 517 30,000 49 Climbing Seattle Center
Sat 06:24:43 PM 47.9678 -118.6440 275° West 452 520 30,000 -49 Level Seattle Center
Sat 06:25:44 PM 47.9789 -118.8440 273° West 481 554 29,900  Descending Seattle Center
Sat 06:26:45 PM 47.9864 -119.0840 275° West 494 568 30,000 148 Climbing Seattle Center
Sat 06:27:46 PM 47.9978 -119.2840 272° West 486 559 30,200  Climbing Seattle Center
Sat 06:28:47 PM 48.0031 -119.4850 272° West 487 560 30,000 -98 Descending Seattle Center
Sat 06:29:48 PM 48.0083 -119.6870 274° West 487 560 30,000 -148 Level Seattle Center
Sat 06:30:49 PM 48.0181 -119.8880 274° West 488 562 29,700 -49 Descending Seattle Center
Sat 06:31:50 PM 48.0275 -120.0900 274° West 489 563 29,900 148 Climbing Seattle Center
Sat 06:32:51 PM 48.0372 -120.2930 275° West 490 564 30,000 49 Climbing Seattle Center
Sat 06:33:52 PM 48.0489 -120.4920 275° West 486 559 30,000 -98 Level Seattle Center
Sat 06:34:53 PM 48.0600 -120.6930 276° West 486 559 29,800 -49 Descending Seattle Center
Sat 06:35:54 PM 48.0744 -120.9180 277° West 487 560 29,900 148 Climbing Seattle Center
Sat 06:36:55 PM 48.0906 -121.1160 275° West 487 560 30,100  Climbing Seattle Center
Sat 06:37:56 PM 48.1011 -121.3130 292° West 482 555 29,900 -49 Descending Seattle Center
Sat 06:38:57 PM 48.1500 -121.4970 359° North 492 566 30,000  Climbing Seattle Center
Sat 06:39:58 PM 48.2811 -121.5010 71° East 519 597 29,900  Descending Seattle Center
Sat 06:40:59 PM 48.3208 -121.3250 122° Southeast 481 554 30,000 49 Climbing Seattle Center
Sat 06:42:00 PM 48.2389 -121.1320 113° Southeast 459 528 30,000  Level Seattle Center
Sat 06:43:01 PM 48.1850 -120.9460 110° East 496 571 30,000 -49 Level Seattle Center
Sat 06:44:02 PM 48.1378 -120.7510 110° East 526 605 29,900 49 Descending Seattle Center
Sat 06:45:03 PM 48.0886 -120.5470 110° East 524 603 30,100  Climbing Seattle Center
Sat 06:46:04 PM 48.0386 -120.3430 108° East 525 604 29,900 -49 Descending Seattle Center
Sat 06:47:05 PM 47.9936 -120.1340 96° East 526 605 30,000  Climbing Seattle Center
Sat 06:48:06 PM 47.9786 -119.9130 96° East 530 610 29,900 -98 Descending Seattle Center
Sat 06:49:07 PM 47.9639 -119.6930 93° East 532 612 29,800 49 Descending Seattle Center
Sat 06:50:08 PM 47.9556 -119.4730 93° East 531 611 30,000 148 Climbing Seattle Center
Sat 06:51:09 PM 47.9461 -119.2100 97° East 535 616 30,100  Climbing Seattle Center
Sat 06:52:09 PM 47.9289 -118.9910 100° East 529 609 30,000 50 Descending Seattle Center
Sat 06:53:10 PM 47.9028 -118.7700 106° East 532 612 30,200 49 Climbing Seattle Center
Sat 06:54:11 PM 47.8622 -118.5610 111° Southeast 529 609 30,100 -49 Descending Seattle Center
Sat 06:55:12 PM 47.8100 -118.3570 99° East 532 612 30,100  Level Seattle Center
Sat 06:56:13 PM 47.7881 -118.1430 90° East 534 615 30,100 148 Level Seattle Center
Sat 06:57:14 PM 47.7869 -117.9270 80° East 520 598 30,400 1,131 Climbing Seattle Center
Sat 06:58:15 PM 47.8089 -117.7300 80° East 490 564 32,400 2,164 Climbing Seattle Center
Sat 06:59:16 PM 47.8314 -117.5310 92° East 486 559 34,800 1,279 Climbing Seattle Center
Sat 07:00:17 PM 47.8261 -117.3340 96° East 478 550 35,000  Climbing Seattle Center
Sat 07:01:18 PM 47.8131 -117.1400 96° East 473 544 34,800  Descending Seattle Center
Sat 07:02:18 PM 47.7975 -116.9290 97° East 476 548 35,000  Climbing Seattle Center
Sat 07:03:19 PM 47.7822 -116.7450 83° East 475 547 34,800  Descending Seattle Center
Sat 07:04:20 PM 47.7989 -116.5520 25° Northeast 490 564 35,000 98 Climbing Seattle Center
Sat 07:05:21 PM 47.9161 -116.4690 325° Northwest 496 571 35,000  Level Seattle Center
Sat 07:06:22 PM 48.0136 -116.5730 267° West 455 524 35,000 49 Level Seattle Center
Sat 07:07:23 PM 48.0072 -116.7430 266° West 413 475 35,100 98 Climbing Seattle Center
Sat 07:08:25 PM 47.9967 -116.9540 267° West 420 483 35,200 49 Climbing Seattle Center
Sat 07:09:26 PM 47.9903 -117.1260 267° West 420 483 35,200 -49 Level Seattle Center
Sat 07:10:27 PM 47.9836 -117.3000 267° West 421 484 35,100 -99 Descending Seattle Center
Sat 07:11:27 PM 47.9781 -117.4680 269° West 422 486 35,000 -50 Descending Seattle Center
Sat 07:12:28 PM 47.9767 -117.6420 269° West 422 486 35,000 -49 Level Seattle Center
Sat 07:13:29 PM 47.9747 -117.8160 268° West 423 487 34,900 -49 Descending Seattle Center
Sat 07:14:30 PM 47.9700 -117.9890 266° West 421 484 34,900 98 Level Seattle Center
Sat 07:15:31 PM 47.9619 -118.1640 268° West 423 487 35,100 148 Climbing Seattle Center
Sat 07:16:32 PM 47.9581 -118.3400 275° West 427 491 35,200  Climbing Seattle Center
Sat 07:17:32 PM 47.9686 -118.5150 271° West 417 480 35,100 -99 Descending Seattle Center
Sat 07:18:33 PM 47.9706 -118.7330 271° West 454 522 35,000  Descending Seattle Center
Sat 07:19:34 PM 47.9717 -118.9260 272° West 461 531 35,100 49 Climbing Seattle Center
Sat 07:20:35 PM 47.9767 -119.1140 276° West 455 524 35,100 -49 Level Seattle Center
Sat 07:21:36 PM 47.9906 -119.3050 276° West 461 531 35,000  Descending Seattle Center
Sat 07:22:36 PM 48.0042 -119.4950 277° West 462 532 35,100 50 Climbing Seattle Center
Sat 07:23:37 PM 48.0189 -119.6850 276° West 463 533 35,100 -49 Level Seattle Center
Sat 07:24:38 PM 48.0328 -119.8770 276° West 466 536 35,000 -49 Descending Seattle Center
Sat 07:25:39 PM 48.0461 -120.0670 275° West 463 533 35,000 -49 Level Seattle Center
Sat 07:26:40 PM 48.0575 -120.2570 276° West 463 533 34,900 -50 Descending Seattle Center
Sat 07:27:40 PM 48.0697 -120.4490 275° West 465 535 34,900  Level Seattle Center
Sat 07:28:41 PM 48.0817 -120.6450 275° West 470 541 34,900 49 Level Seattle Center
Sat 07:29:42 PM 48.0928 -120.8520 274° West 473 544 35,000 -98 Climbing Seattle Center
Sat 07:30:43 PM 48.1025 -121.0430 275° West 468 539 34,700 -49 Descending Seattle Center
Sat 07:31:44 PM 48.1128 -121.2310 275° West 465 535 34,900 99 Climbing Seattle Center
Sat 07:32:44 PM 48.1250 -121.4270 272° West 475 547 34,900 50 Level Seattle Center
Sat 07:33:45 PM 48.1306 -121.6280 278° West 488 562 35,000 148 Climbing Seattle Center
Sat 07:34:46 PM 48.1519 -121.8630 229° Southwest 491 565 35,200  Climbing Seattle Center
Sat 07:35:47 PM 48.0664 -122.0080 162° South 480 552 35,000 -98 Descending Seattle Center
Sat 07:36:48 PM 47.9414 -121.9460 106° East 512 589 35,000 -50 Level Seattle Center
Sat 07:37:48 PM 47.9036 -121.7450 90° East 529 609 34,900  Descending Seattle Center
Sat 07:38:49 PM 47.9028 -121.5260 89° East 533 613 35,000 49 Climbing Seattle Center
Sat 07:39:50 PM 47.9061 -121.3070 88° East 533 613 35,000  Level Seattle Center
Sat 07:40:51 PM 47.9119 -121.0860 86° East 539 620 35,000 -197 Level Seattle Center
Sat 07:41:52 PM 47.9228 -120.8690 84° East 535 616 34,600 -99 Descending Seattle Center
Sat 07:42:52 PM 47.9375 -120.6440 87° East 532 612 34,800 198 Climbing Seattle Center
Sat 07:43:53 PM 47.9458 -120.4220 90° East 542 624 35,000 98 Climbing Seattle Center
Sat 07:44:54 PM 47.9461 -120.2010 90° East 538 619 35,000 49 Level Seattle Center
Sat 07:45:55 PM 47.9447 -119.9820 92° East 531 611 35,100 49 Climbing Seattle Center
Sat 07:46:56 PM 47.9400 -119.7620 93° East 533 613 35,100  Level Seattle Center
Sat 07:47:56 PM 47.9331 -119.5420 92° East 532 612 35,100 248 Level Seattle Center
Sat 07:48:57 PM 47.9283 -119.2890 92° East 508 585 35,600 1,131 Climbing Seattle Center
Sat 07:49:58 PM 47.9244 -119.0840 86° East 496 571 37,400 1,967 Climbing Seattle Center
Sat 07:50:59 PM 47.9336 -118.8830 72° East 483 556 39,600 1,289 Climbing Seattle Center
Sat 07:51:59 PM 47.9769 -118.6780 73° East 508 585 40,000 198 Climbing Seattle Center
Sat 07:53:00 PM 48.0169 -118.4810 73° East 502 578 40,000 49 Level Seattle Center
Sat 07:54:01 PM 48.0572 -118.2810 74° East 503 579 40,100  Climbing Seattle Center
Sat 07:55:02 PM 48.0944 -118.0800 79° East 504 580 40,000 50 Descending Seattle Center
Sat 07:56:02 PM 48.1214 -117.8770 86° East 498 573 40,200 99 Climbing Seattle Center
Sat 07:57:03 PM 48.1317 -117.6710 92° East 500 575 40,200  Level Seattle Center
Sat 07:58:04 PM 48.1264 -117.4640 106° East 499 574 40,200 -197 Level Seattle Center
Sat 07:59:05 PM 48.0897 -117.2670 108° East 495 570 39,800 -246 Descending Seattle Center
Sat 08:00:06 PM 48.0478 -117.0760 110° East 485 558 39,700 99 Descending Seattle Center
Sat 08:01:06 PM 48.0017 -116.8870 112° Southeast 485 558 40,000 149 Climbing Seattle Center
Sat 08:02:07 PM 47.9503 -116.6940 113° Southeast 490 564 40,000 -98 Level Seattle Center
Sat 08:03:08 PM 47.8961 -116.5070 119° Southeast 489 563 39,800 49 Descending Seattle Center
Sat 08:04:09 PM 47.8292 -116.3310 179° South 488 562 40,100 50 Climbing Seattle Center
Sat 08:05:09 PM 47.7094 -116.3290 259° West 457 526 39,900 -99 Descending Seattle Center
Sat 08:06:10 PM 47.6853 -116.5070 287° West 478 550 39,900 49 Level Seattle Center
Sat 08:07:11 PM 47.7228 -116.6900 286° West 479 551 40,000 49 Climbing Seattle Center
Sat 08:08:12 PM 47.7661 -116.9190 276° West 482 555 40,000 49 Level Seattle Center
Sat 08:09:13 PM 47.7794 -117.1130 278° West 479 551 40,100 -50 Climbing Seattle Center
Sat 08:10:13 PM 47.7967 -117.2970 280° West 474 545 39,900 -50 Descending Seattle Center
Sat 08:11:14 PM 47.8181 -117.4880 281° West 474 545 40,000 49 Climbing Seattle Center
Sat 08:12:15 PM 47.8433 -117.6800 283° West 475 547 40,000 49 Level Seattle Center
Sat 08:13:16 PM 47.8731 -117.8710 276° West 477 549 40,100  Climbing Seattle Center
Sat 08:14:17 PM 47.8856 -118.0650 276° West 474 545 40,000 -50 Descending Seattle Center
Sat 08:15:17 PM 47.8997 -118.2610 280° West 477 549 40,000 -50 Level Seattle Center
Sat 08:16:18 PM 47.9214 -118.4550 283° West 479 551 39,900  Descending Seattle Center
Sat 08:17:19 PM 47.9508 -118.6480 284° West 477 549 40,000  Climbing Seattle Center
Sat 08:18:20 PM 47.9828 -118.8390 273° West 475 547 39,900 -49 Descending Seattle Center
Sat 08:19:21 PM 47.9889 -119.0350 268° West 474 545 39,900 99 Level Seattle Center
Sat 08:20:21 PM 47.9828 -119.2720 273° West 481 554 40,100 99 Climbing Seattle Center
Sat 08:21:22 PM 47.9892 -119.4720 278° West 484 557 40,100 -49 Level Seattle Center
Sat 08:22:23 PM 48.0078 -119.6770 276° West 486 559 40,000  Descending Seattle Center
Sat 08:23:24 PM 48.0206 -119.8780 274° West 487 560 40,100 50 Climbing Seattle Center
Sat 08:24:24 PM 48.0297 -120.0750 272° West 491 565 40,100 -50 Level Seattle Center
Sat 08:25:25 PM 48.0350 -120.2780 276° West 491 565 40,000 -49 Descending Seattle Center
Sat 08:26:26 PM 48.0481 -120.4780 278° West 488 562 40,000 -49 Level Seattle Center
Sat 08:27:27 PM 48.0661 -120.6790 279° West 487 560 39,900  Descending Seattle Center
Sat 08:28:27 PM 48.0867 -120.8730 281° West 487 560 40,000  Climbing Seattle Center
Sat 08:29:28 PM 48.1128 -121.0700 282° West 488 562 39,900  Descending Seattle Center
Sat 08:30:29 PM 48.1417 -121.2670 271° West 491 565 40,000 49 Climbing Seattle Center
Sat 08:31:30 PM 48.1433 -121.5060 266° West 489 563 40,000 -50 Level Seattle Center
Sat 08:32:30 PM 48.1347 -121.7070 266° West 490 564 39,900 -99 Descending Seattle Center
Sat 08:33:31 PM 48.1261 -121.9110 264° West 497 572 39,800 -2,016 Descending Seattle Center
Sat 08:34:32 PM 48.1128 -122.0940 264° West 447 514 35,800 -5,016 Descending Seattle Center
Sat 08:35:33 PM 48.1008 -122.2640 253° West 418 481 29,600 -6,132 Descending Seattle Center
Sat 08:36:03 PM 48.0833 -122.3500 275° West 410 472 26,500 -5,500 Descending Vancouver Center
Sat 08:36:33 PM 48.0872 -122.4180 236° Southwest 393 452 24,100 -6,000 Descending Seattle Center
Sat 08:37:03 PM 48.0500 -122.5000 271° West 380 437 20,500 -5,410 Descending Vancouver Center
Sat 08:37:34 PM 48.0506 -122.5570 236° Southwest 369 425 18,600 -4,300 Descending Seattle Center
Sat 08:38:03 PM 48.0167 -122.6330 261° West 360 414 16,200 -2,557 Descending Vancouver Center
Sat 08:38:35 PM 48.0072 -122.7220 218° Southwest 358 412 16,000 -200 Descending Seattle Center
Sat 08:39:03 PM 47.9833 -122.7500 263° West 340 391 16,000  Level Vancouver Center
Sat 08:39:36 PM 47.9753 -122.8460 235° Southwest 343 395 16,000 -100 Level Seattle Center
Sat 08:40:03 PM 47.9500 -122.9000 273° West 340 391 15,900 -1,180 Descending Vancouver Center
Sat 08:40:37 PM 47.9528 -122.9800 291° West 351 404 14,800 -2,400 Descending Seattle Center
Sat 08:41:03 PM 47.9667 -123.0330 347° North 330 380 13,500 -2,933 Descending Vancouver Center
Sat 08:41:22 PM 48.0114 -123.0480 North 352 405 12,600 -2,118 Descending Seattle Center
Sat 08:41:37 PM 48.0281 -123.0460 55° Northeast 346 398 12,300 -878 Descending Seattle Center
Sat 08:42:03 PM 48.0500 -123.0000 31° Northeast 340 391 12,000 -346 Descending Vancouver Center
Sat 08:42:29 PM 48.0869 -122.9670 110° East 341 392 12,000  Level Seattle Center
Sat 08:43:03 PM 48.0667 -122.8830 132° Southeast 320 368 12,000  Level Vancouver Center
Sat 08:43:30 PM 48.0514 -122.8580 150° Southeast 318 366 12,000  Level Seattle Center
Sat 08:44:03 PM 47.9833 -122.8000 153° Southeast 310 357 12,000  Level Vancouver Center
Sat 08:44:36 PM 47.9622 -122.7840 153° Southeast 314 361 12,000 -200 Level Seattle Center
Sat 08:45:03 PM 47.9167 -122.7500 139° Southeast 310 357 11,800 -545 Descending Vancouver Center
Sat 08:45:31 PM 47.8964 -122.7240 149° Southeast 304 350 11,500 -600 Descending Seattle Center
Sat 08:46:03 PM 47.8500 -122.6830 146° Southeast 300 345 11,200 -806 Descending Vancouver Center
Sat 08:46:38 PM 47.8247 -122.6580 158° South 281 323 10,600 -1,100 Descending Seattle Center
Sat 08:47:03 PM 47.7833 -122.6330 137° Southeast 280 322 10,100 -590 Descending Vancouver Center
Sat 08:47:39 PM 47.7589 -122.5990 153° Southeast 275 316 10,000 -100 Descending Seattle Center
Sat 08:48:03 PM 47.7167 -122.5670 143° Southeast 280 322 10,000  Level Vancouver Center
Sat 08:48:42 PM 47.6883 -122.5350 150° Southeast 276 318 10,000  Level Seattle Center
Sat 08:49:34 PM 47.6331 -122.4870 153° Southeast 277 319 10,000 -212 Level Seattle Center
Sat 08:50:35 PM 47.5647 -122.4360 154° Southeast 274 315 9,600 -923 Descending Seattle Center
Sat 08:51:44 PM 47.5008 -122.3890 154° Southeast 229 264 8,000 -1,553 Descending Seattle Center
Sat 08:52:00 PM 47.4828 -122.3760 158° South 203 234 7,400 -2,192 Descending Seattle Center
Sat 08:52:36 PM 47.4542 -122.3590 152° Southeast 186 214 6,100 -1,856 Descending Seattle Center
Sat 08:53:37 PM 47.4125 -122.3260 82° East 176 203 4,400 -1,820 Descending Seattle Center
Sat 08:54:38 PM 47.4194 -122.2570 11° North 166 191 2,400 -1,426 Descending Seattle Center
Sat 08:55:39 PM 47.4567 -122.2460 333° Northwest 151 174 1,500 -793 Descending Seattle Center
Sat 08:56:39 PM 47.4894 -122.2710 332° Northwest 136 157 800 17,442 Descending Seattle Center
Sat 08:57:48 PM 47.5239 -122.2980 332° Northwest 129 148 39,000 33,217 Climbing Seattle Center

Login

Don't have an account? Register now (free) for customized features, flight alerts, and more!